createdAt,value
2023-05-07T00:00:00.396Z,7.37
2023-05-07T00:02:27.198Z,7.33
2023-05-07T00:04:54.119Z,7.30
2023-05-07T00:07:21.088Z,7.27
2023-05-07T00:09:47.940Z,7.22
2023-05-07T00:12:15.353Z,7.18
2023-05-07T00:14:42.199Z,7.14
2023-05-07T00:17:09.040Z,7.10
2023-05-07T00:19:36.042Z,7.07
2023-05-07T00:22:03.026Z,7.07
2023-05-07T00:24:29.994Z,7.04
2023-05-07T00:26:58.510Z,6.99
2023-05-07T00:29:25.570Z,6.94
2023-05-07T00:31:54.543Z,6.90
2023-05-07T00:34:21.532Z,6.87
2023-05-07T00:36:48.718Z,6.83
2023-05-07T00:39:15.489Z,6.80
2023-05-07T00:41:42.614Z,6.77
2023-05-07T00:44:12.002Z,6.75
2023-05-07T00:46:39.706Z,6.73
2023-05-07T00:49:07.042Z,6.71
2023-05-07T00:51:34.254Z,6.69
2023-05-07T00:54:02.440Z,6.65
2023-05-07T00:56:29.390Z,6.62
2023-05-07T00:58:56.391Z,6.58
2023-05-07T01:01:23.373Z,6.56
2023-05-07T01:03:50.335Z,6.55
2023-05-07T01:06:17.789Z,6.50
2023-05-07T01:08:45.427Z,6.46
2023-05-07T01:11:12.379Z,6.42
2023-05-07T01:13:39.322Z,6.39
2023-05-07T01:16:07.261Z,6.37
2023-05-07T01:18:34.461Z,6.35
2023-05-07T01:21:02.434Z,6.32
2023-05-07T01:23:29.282Z,6.28
2023-05-07T01:25:56.158Z,6.24
2023-05-07T01:28:25.636Z,6.20
2023-05-07T01:30:56.800Z,6.16
2023-05-07T01:33:24.561Z,6.13
2023-05-07T01:35:53.539Z,6.11
2023-05-07T01:38:22.083Z,6.09
2023-05-07T01:40:48.871Z,6.08
2023-05-07T01:43:17.298Z,6.08
2023-05-07T01:45:44.991Z,6.06
2023-05-07T01:48:12.085Z,6.01
2023-05-07T01:50:39.047Z,5.98
2023-05-07T01:53:06.037Z,5.96
2023-05-07T01:55:32.938Z,5.93
2023-05-07T01:58:00.385Z,5.92
2023-05-07T02:00:27.707Z,5.90
2023-05-07T02:02:55.094Z,5.89
2023-05-07T02:05:33.322Z,5.88
2023-05-07T02:08:06.502Z,5.88
2023-05-07T02:10:33.529Z,5.85
2023-05-07T02:13:02.417Z,5.80
2023-05-07T02:15:29.713Z,5.78
2023-05-07T02:18:03.130Z,5.77
2023-05-07T02:20:30.212Z,5.76
2023-05-07T02:22:57.226Z,5.75
2023-05-07T02:25:24.291Z,5.73
2023-05-07T02:27:51.287Z,5.71
2023-05-07T02:30:18.787Z,5.69
2023-05-07T02:32:46.101Z,5.68
2023-05-07T02:35:13.299Z,5.68
2023-05-07T02:37:40.315Z,5.68
2023-05-07T02:43:48.942Z,5.70
2023-05-07T02:46:17.563Z,5.68
2023-05-07T02:48:47.339Z,5.67
2023-05-07T02:51:14.291Z,5.69
2023-05-07T02:53:42.978Z,5.70
2023-05-07T02:56:09.845Z,5.69
2023-05-07T02:58:37.172Z,5.70
2023-05-07T03:01:04.557Z,5.69
2023-05-07T03:03:36.597Z,5.68
2023-05-07T03:06:03.861Z,5.68
2023-05-07T03:08:31.037Z,5.67
2023-05-07T03:13:14.120Z,5.69
2023-05-07T03:15:41.433Z,5.68
2023-05-07T03:18:08.617Z,5.71
2023-05-07T03:20:37.896Z,5.79
2023-05-07T03:23:05.111Z,5.90
2023-05-07T03:25:33.129Z,6.03
2023-05-07T03:28:00.148Z,6.10
2023-05-07T03:30:34.086Z,6.14
2023-05-07T03:33:01.200Z,6.17
2023-05-07T03:35:28.781Z,6.24
2023-05-07T03:37:57.006Z,6.31
2023-05-07T03:40:24.126Z,6.35
2023-05-07T03:42:53.410Z,6.36
2023-05-07T03:45:21.909Z,6.39
2023-05-07T03:47:54.701Z,6.42
2023-05-07T03:50:22.175Z,6.45
2023-05-07T03:52:49.527Z,6.48
2023-05-07T03:55:19.264Z,6.51
2023-05-07T03:57:51.058Z,6.59
2023-05-07T04:00:21.373Z,6.68
2023-05-07T04:02:48.919Z,6.74
2023-05-07T04:05:19.718Z,6.80
2023-05-07T04:07:48.669Z,6.92
2023-05-07T04:10:16.820Z,7.02
2023-05-07T04:12:44.848Z,7.20
2023-05-07T04:15:14.118Z,7.47
2023-05-07T04:17:43.063Z,7.79
2023-05-07T04:20:11.984Z,8.11
2023-05-07T04:22:39.646Z,8.43
2023-05-07T04:25:07.572Z,8.72
2023-05-07T04:27:36.116Z,9.11
2023-05-07T04:30:04.454Z,9.60
2023-05-07T04:32:34.958Z,10.07
2023-05-07T04:35:03.089Z,10.38
2023-05-07T04:37:33.538Z,10.60
2023-05-07T04:40:01.639Z,10.73
2023-05-07T04:42:29.479Z,10.78
2023-05-07T04:44:57.692Z,10.76
2023-05-07T04:47:24.844Z,10.77
2023-05-07T04:49:53.380Z,10.86
2023-05-07T04:52:20.623Z,11.04
2023-05-07T04:54:48.580Z,11.26
2023-05-07T04:57:16.099Z,11.49
2023-05-07T04:59:43.494Z,11.72
2023-05-07T05:02:12.661Z,12.01
2023-05-07T05:04:39.844Z,12.47
2023-05-07T05:07:07.718Z,13.01
2023-05-07T05:09:34.705Z,13.52
2023-05-07T05:12:01.868Z,13.98
2023-05-07T05:14:30.603Z,14.36
2023-05-07T05:16:58.113Z,14.79
2023-05-07T05:19:25.135Z,15.21
2023-05-07T05:21:52.320Z,15.55
2023-05-07T05:24:19.342Z,15.94
2023-05-07T05:26:46.261Z,16.32
2023-05-07T05:29:13.760Z,16.56
2023-05-07T05:31:42.897Z,16.80
2023-05-07T05:34:10.604Z,17.11
2023-05-07T05:36:38.410Z,17.44
2023-05-07T05:39:05.403Z,17.66
2023-05-07T05:41:33.266Z,17.83
2023-05-07T05:44:00.688Z,18.12
2023-05-07T05:46:28.560Z,18.44
2023-05-07T05:48:56.695Z,18.64
2023-05-07T05:51:24.383Z,18.90
2023-05-07T05:53:51.370Z,19.05
2023-05-07T05:56:18.649Z,19.25
2023-05-07T05:58:45.777Z,19.39
2023-05-07T06:01:13.246Z,19.40
2023-05-07T06:03:40.674Z,19.44
2023-05-07T06:06:12.708Z,19.56
2023-05-07T06:08:39.728Z,19.77
2023-05-07T06:11:07.124Z,20.05
2023-05-07T06:13:35.689Z,20.25
2023-05-07T06:16:02.755Z,20.48
2023-05-07T06:18:30.195Z,20.75
2023-05-07T06:20:57.637Z,20.86
2023-05-07T06:23:26.923Z,20.82
2023-05-07T06:25:53.907Z,20.86
2023-05-07T06:28:23.848Z,20.96
2023-05-07T06:30:51.481Z,21.05
2023-05-07T06:33:18.677Z,21.11
2023-05-07T06:35:46.116Z,21.22
2023-05-07T06:38:13.597Z,21.46
2023-05-07T06:40:41.642Z,21.66
2023-05-07T06:43:08.732Z,21.93
2023-05-07T06:45:58.816Z,22.26
2023-05-07T06:48:25.977Z,22.45
2023-05-07T06:50:59.244Z,22.59
2023-05-07T06:53:27.135Z,22.63
2023-05-07T06:55:54.527Z,22.67
2023-05-07T06:58:21.580Z,22.59
2023-05-07T07:00:49.079Z,22.50
2023-05-07T07:03:16.812Z,22.64
2023-05-07T07:05:44.021Z,22.74
2023-05-07T07:19:55.835Z,23.39
2023-05-07T07:22:23.609Z,23.50
2023-05-07T07:24:52.437Z,23.65
2023-05-07T07:27:19.691Z,23.62
2023-05-07T07:29:46.857Z,23.46
2023-05-07T07:32:13.933Z,23.36
2023-05-07T07:34:41.320Z,23.25
2023-05-07T07:37:09.214Z,23.28
2023-05-07T07:39:38.841Z,23.20
2023-05-07T07:42:06.711Z,23.11
2023-05-07T07:44:34.150Z,23.16
2023-05-07T07:47:05.906Z,23.36
2023-05-07T07:49:33.662Z,23.68
2023-05-07T07:52:03.785Z,24.11
2023-05-07T07:54:31.520Z,24.37
2023-05-07T07:56:59.059Z,24.51
2023-05-07T07:59:26.685Z,24.57
2023-05-07T08:01:56.865Z,24.52
2023-05-07T08:04:24.318Z,24.53
2023-05-07T08:06:51.700Z,24.70
2023-05-07T08:09:18.700Z,24.97
2023-05-07T08:11:47.109Z,24.99
2023-05-07T08:14:14.546Z,24.86
2023-05-07T08:16:43.408Z,24.76
2023-05-07T08:19:11.228Z,24.78
2023-05-07T08:21:41.785Z,24.80
2023-05-07T08:24:09.735Z,24.95
2023-05-07T08:26:37.512Z,25.07
2023-05-07T08:29:05.553Z,24.89
2023-05-07T08:31:32.546Z,24.64
2023-05-07T08:33:59.777Z,24.49
2023-05-07T08:36:27.021Z,24.42
2023-05-07T08:38:54.717Z,24.31
2023-05-07T08:41:22.163Z,24.09
2023-05-07T08:43:51.451Z,24.03
2023-05-07T08:46:22.783Z,23.92
2023-05-07T08:48:51.997Z,23.80
2023-05-07T08:51:21.518Z,23.79
2023-05-07T08:53:49.717Z,23.78
2023-05-07T08:56:22.365Z,23.83
2023-05-07T08:58:51.693Z,23.99
2023-05-07T09:01:18.866Z,23.98
2023-05-07T09:03:50.547Z,23.99
2023-05-07T09:06:19.366Z,24.05
2023-05-07T09:08:53.729Z,24.02
2023-05-07T09:11:24.874Z,24.12
2023-05-07T09:13:57.432Z,24.22
2023-05-07T09:16:27.072Z,24.13
2023-05-07T09:18:54.912Z,24.16
2023-05-07T09:21:24.025Z,24.28
2023-05-07T09:23:53.134Z,24.21
2023-05-07T09:26:24.950Z,24.09
2023-05-07T09:28:52.705Z,24.02
2023-05-07T09:31:21.602Z,23.93
2023-05-07T09:33:49.848Z,23.89
2023-05-07T09:36:16.959Z,23.87
2023-05-07T09:38:45.769Z,23.91
2023-05-07T09:41:13.622Z,23.90
2023-05-07T09:43:45.583Z,23.94
2023-05-07T09:46:15.483Z,23.93
2023-05-07T09:48:46.973Z,23.96
2023-05-07T09:51:34.805Z,23.88
2023-05-07T09:54:03.876Z,23.72
2023-05-07T09:56:32.488Z,23.67
2023-05-07T09:59:03.043Z,23.71
2023-05-07T10:01:32.378Z,23.83
2023-05-07T10:03:59.769Z,23.96
2023-05-07T10:06:26.946Z,24.07
2023-05-07T10:08:54.077Z,24.12
2023-05-07T10:11:21.785Z,24.13
2023-05-07T10:13:49.158Z,24.15
2023-05-07T10:16:16.626Z,24.25
2023-05-07T10:18:46.672Z,24.32
2023-05-07T10:21:22.079Z,24.23
2023-05-07T10:23:52.389Z,24.15
2023-05-07T10:26:20.454Z,24.12
2023-05-07T10:28:50.743Z,24.05
2023-05-07T10:31:50.555Z,23.93
2023-05-07T10:34:22.340Z,23.96
2023-05-07T10:36:49.394Z,24.02
2023-05-07T10:39:16.408Z,24.03
2023-05-07T10:41:43.894Z,24.04
2023-05-07T10:44:10.985Z,24.14
2023-05-07T10:46:38.224Z,24.31
2023-05-07T10:49:17.391Z,24.42
2023-05-07T10:52:19.646Z,24.33
2023-05-07T10:55:15.985Z,24.28
2023-05-07T10:57:43.535Z,24.39
2023-05-07T11:00:38.073Z,24.48
2023-05-07T11:03:08.412Z,24.28
2023-05-07T11:05:50.209Z,24.17
2023-05-07T11:08:24.806Z,24.13
2023-05-07T11:11:02.460Z,24.08
2023-05-07T11:13:47.712Z,24.10
2023-05-07T11:16:25.538Z,24.14
2023-05-07T11:18:59.983Z,24.30
2023-05-07T11:21:42.297Z,24.37
2023-05-07T11:24:24.320Z,24.43
2023-05-07T11:27:13.885Z,24.18
2023-05-07T11:29:43.004Z,23.77
2023-05-07T11:32:17.048Z,23.41
2023-05-07T11:34:52.885Z,23.20
2023-05-07T11:37:20.816Z,23.06
2023-05-07T11:40:07.723Z,22.86
2023-05-07T11:42:36.655Z,22.57
2023-05-07T11:45:03.948Z,22.22
2023-05-07T11:47:31.736Z,21.82
2023-05-07T11:50:00.098Z,21.46
2023-05-07T11:52:27.421Z,21.07
2023-05-07T11:54:58.789Z,20.67
2023-05-07T11:57:25.904Z,20.34
2023-05-07T11:59:56.462Z,20.02
2023-05-07T12:02:23.530Z,19.81
2023-05-07T12:04:50.586Z,19.69
2023-05-07T12:07:17.792Z,19.58
2023-05-07T12:09:48.912Z,19.42
2023-05-07T12:12:18.694Z,19.19
2023-05-07T12:14:46.672Z,19.01
2023-05-07T12:17:14.687Z,18.92
2023-05-07T12:19:43.258Z,18.94
2023-05-07T12:22:10.312Z,18.87
2023-05-07T12:24:51.481Z,18.75
2023-05-07T12:27:18.794Z,18.69
2023-05-07T12:29:49.827Z,18.65
2023-05-07T12:32:17.964Z,18.56
2023-05-07T12:34:45.875Z,18.51
2023-05-07T12:37:14.069Z,18.47
2023-05-07T12:39:50.757Z,18.39
2023-05-07T12:42:17.991Z,18.36
2023-05-07T12:44:46.953Z,18.34
2023-05-07T12:47:14.044Z,18.34
2023-05-07T12:49:41.325Z,18.37
2023-05-07T12:52:08.280Z,18.36
2023-05-07T12:54:39.648Z,18.34
2023-05-07T12:57:10.994Z,18.26
2023-05-07T12:59:39.312Z,18.17
2023-05-07T13:02:06.810Z,18.11
2023-05-07T13:04:34.685Z,18.04
2023-05-07T13:07:02.010Z,17.93
2023-05-07T13:09:30.426Z,17.81
2023-05-07T13:11:57.513Z,17.68
2023-05-07T13:14:24.781Z,17.62
2023-05-07T13:16:52.066Z,17.57
2023-05-07T13:19:19.244Z,17.53
2023-05-07T13:21:46.522Z,17.46
2023-05-07T13:24:13.534Z,17.42
2023-05-07T13:26:40.533Z,17.36
2023-05-07T13:29:08.258Z,17.31
2023-05-07T13:31:36.800Z,17.23
2023-05-07T13:34:04.286Z,17.17
2023-05-07T13:36:34.134Z,17.11
2023-05-07T13:39:01.849Z,17.06
2023-05-07T13:41:29.032Z,17.00
2023-05-07T13:44:08.424Z,16.89
2023-05-07T13:46:35.717Z,16.78
2023-05-07T13:49:39.641Z,16.71
2023-05-07T13:52:07.500Z,16.64
2023-05-07T13:54:34.521Z,16.60
2023-05-07T13:57:01.694Z,16.55
2023-05-07T13:59:28.612Z,16.51
2023-05-07T14:01:56.292Z,16.46
2023-05-07T14:04:23.340Z,16.41
2023-05-07T14:06:50.390Z,16.36
2023-05-07T14:09:17.501Z,16.33
2023-05-07T14:11:44.465Z,16.30
2023-05-07T14:14:24.287Z,16.30
2023-05-07T14:16:52.693Z,16.30
2023-05-07T14:22:36.218Z,16.27
2023-05-07T14:25:06.974Z,16.24
2023-05-07T14:27:34.869Z,16.17
2023-05-07T14:30:02.478Z,16.07
2023-05-07T14:44:00.098Z,16.01
2023-05-07T14:46:31.996Z,15.98
2023-05-07T14:49:06.009Z,15.96
2023-05-07T14:51:34.140Z,15.93
2023-05-07T14:54:03.113Z,15.90
2023-05-07T14:56:30.170Z,15.85
2023-05-07T14:58:57.139Z,15.80
2023-05-07T15:01:24.165Z,15.77
2023-05-07T15:06:41.997Z,15.76
2023-05-07T15:08:40.988Z,15.70
2023-05-07T15:11:50.991Z,15.70
2023-05-07T15:15:06.326Z,15.65
2023-05-07T15:17:33.791Z,15.61
2023-05-07T15:20:00.898Z,15.56
2023-05-07T15:22:29.429Z,15.53
2023-05-07T15:24:57.919Z,15.51
2023-05-07T15:30:41.623Z,15.46
2023-05-07T15:33:08.837Z,15.41
2023-05-07T15:35:35.949Z,15.40
2023-05-07T15:38:03.511Z,15.39
2023-05-07T15:40:31.865Z,15.36
2023-05-07T15:42:58.777Z,15.31
2023-05-07T15:45:25.713Z,15.25
2023-05-07T15:47:52.724Z,15.21
2023-05-07T15:50:19.938Z,15.17
2023-05-07T15:52:46.937Z,15.13
2023-05-07T15:55:14.515Z,15.09
2023-05-07T15:57:41.351Z,15.04
2023-05-07T16:00:10.367Z,15.00
2023-05-07T16:02:41.205Z,14.98
2023-05-07T16:05:10.538Z,14.96
2023-05-07T16:07:39.263Z,14.89
2023-05-07T16:10:07.810Z,14.84
2023-05-07T16:12:35.833Z,14.79
2023-05-07T16:15:03.306Z,14.76
2023-05-07T16:17:31.584Z,14.73
2023-05-07T16:19:58.495Z,14.69
2023-05-07T16:22:25.643Z,14.64
2023-05-07T16:24:52.760Z,14.58
2023-05-07T16:27:19.738Z,14.53
2023-05-07T16:29:46.577Z,14.47
2023-05-07T16:32:13.504Z,14.42
2023-05-07T16:34:40.383Z,14.37
2023-05-07T16:37:07.258Z,14.29
2023-05-07T16:39:34.251Z,14.23
2023-05-07T16:42:01.131Z,14.18
2023-05-07T16:44:28.615Z,14.13
2023-05-07T16:46:55.457Z,14.09
2023-05-07T16:49:22.263Z,14.04
2023-05-07T16:51:51.537Z,13.99
2023-05-07T16:54:18.548Z,13.94
2023-05-07T16:56:45.345Z,13.87
2023-05-07T16:59:12.093Z,13.83
2023-05-07T17:01:39.204Z,13.77
2023-05-07T17:04:06.372Z,13.71
2023-05-07T17:06:33.541Z,13.64
2023-05-07T17:09:00.549Z,13.57
2023-05-07T17:11:30.582Z,13.49
2023-05-07T17:13:57.644Z,13.43
2023-05-07T17:16:24.690Z,13.36
2023-05-07T17:18:51.764Z,13.27
2023-05-07T17:21:18.610Z,13.20
2023-05-07T17:23:45.558Z,13.15
2023-05-07T17:26:13.927Z,13.08
2023-05-07T17:28:40.868Z,13.03
2023-05-07T17:31:08.936Z,12.99
2023-05-07T17:33:36.274Z,12.92
2023-05-07T17:36:03.276Z,12.86
2023-05-07T17:38:31.474Z,12.80
2023-05-07T17:40:58.892Z,12.75
2023-05-07T17:43:25.644Z,12.69
2023-05-07T17:45:52.725Z,12.65
2023-05-07T17:48:20.698Z,12.59
2023-05-07T17:50:47.528Z,12.56
2023-05-07T17:53:14.419Z,12.53
2023-05-07T17:55:44.604Z,12.49
2023-05-07T17:58:11.557Z,12.45
2023-05-07T18:00:39.090Z,12.41
2023-05-07T18:03:06.645Z,12.36
2023-05-07T18:05:37.164Z,12.31
2023-05-07T18:08:04.605Z,12.26
2023-05-07T18:10:32.056Z,12.22
2023-05-07T18:12:58.913Z,12.18
2023-05-07T18:15:26.690Z,12.14
2023-05-07T18:17:53.583Z,12.10
2023-05-07T18:20:20.450Z,12.06
2023-05-07T18:22:47.361Z,12.02
2023-05-07T18:25:14.511Z,11.98
2023-05-07T18:27:41.351Z,11.94
2023-05-07T18:30:09.519Z,11.89
2023-05-07T18:32:37.077Z,11.85
2023-05-07T18:35:04.703Z,11.82
2023-05-07T18:37:32.048Z,11.78
2023-05-07T18:40:03.445Z,11.75
2023-05-07T18:42:31.048Z,11.72
2023-05-07T18:44:57.915Z,11.70
2023-05-07T18:47:25.145Z,11.67
2023-05-07T18:49:51.992Z,11.64
2023-05-07T18:52:55.363Z,11.61
2023-05-07T18:55:22.664Z,11.58
2023-05-07T18:57:49.671Z,11.56
2023-05-07T19:00:16.613Z,11.52
2023-05-07T19:02:44.443Z,11.49
2023-05-07T19:05:12.557Z,11.46
2023-05-07T19:07:40.196Z,11.43
2023-05-07T19:10:07.485Z,11.38
2023-05-07T19:12:34.899Z,11.36
2023-05-07T19:15:01.717Z,11.33
2023-05-07T19:17:29.349Z,11.29
2023-05-07T19:19:56.405Z,11.25
2023-05-07T19:22:23.183Z,11.23
2023-05-07T19:24:50.108Z,11.19
2023-05-07T19:27:17.520Z,11.17
2023-05-07T19:29:44.583Z,11.16
2023-05-07T19:32:11.628Z,11.13
2023-05-07T19:34:38.663Z,11.09
2023-05-07T19:37:05.523Z,11.06
2023-05-07T19:39:33.040Z,11.03
2023-05-07T19:42:00.754Z,11.00
2023-05-07T19:44:27.564Z,10.99
2023-05-07T19:46:54.360Z,10.97
2023-05-07T19:49:21.335Z,10.94
2023-05-07T19:51:48.066Z,10.92
2023-05-07T19:54:15.068Z,10.91
2023-05-07T19:56:41.928Z,10.91
2023-05-07T19:59:08.825Z,10.90
2023-05-07T20:01:36.074Z,10.89
2023-05-07T20:04:03.251Z,10.87
2023-05-07T20:06:31.209Z,10.86
2023-05-07T20:08:58.370Z,10.84
2023-05-07T20:11:26.342Z,10.82
2023-05-07T20:13:53.218Z,10.79
2023-05-07T20:16:20.355Z,10.77
2023-05-07T20:18:47.334Z,10.75
2023-05-07T20:21:14.889Z,10.72
2023-05-07T20:23:41.656Z,10.70
2023-05-07T20:26:09.078Z,10.67
2023-05-07T20:28:35.962Z,10.63
2023-05-07T20:31:03.228Z,10.61
2023-05-07T20:33:30.124Z,10.56
2023-05-07T20:35:57.685Z,10.54
2023-05-07T20:38:26.451Z,10.53
2023-05-07T20:40:53.363Z,10.50
2023-05-07T20:43:21.006Z,10.46
2023-05-07T20:45:48.376Z,10.42
2023-05-07T20:48:15.831Z,10.38
2023-05-07T20:50:42.872Z,10.35
2023-05-07T20:53:09.688Z,10.33
2023-05-07T20:55:37.303Z,10.31
2023-05-07T20:58:04.015Z,10.29
2023-05-07T21:00:32.183Z,10.27
2023-05-07T21:02:59.581Z,10.27
2023-05-07T21:05:26.404Z,10.27
2023-05-07T21:07:53.312Z,10.28
2023-05-07T21:10:20.402Z,10.29
2023-05-07T21:12:47.783Z,10.29
2023-05-07T21:15:14.616Z,10.30
2023-05-07T21:17:41.960Z,10.30
2023-05-07T21:20:09.081Z,10.30
2023-05-07T21:22:36.007Z,10.30
2023-05-07T21:25:02.965Z,10.30
2023-05-07T21:27:30.180Z,10.30
2023-05-07T21:30:02.777Z,10.30
2023-05-07T21:32:30.557Z,10.29
2023-05-07T21:34:58.681Z,10.31
2023-05-07T21:37:25.443Z,10.33
2023-05-07T21:39:52.519Z,10.35
2023-05-07T21:42:20.798Z,10.36
2023-05-07T21:44:49.445Z,10.37
2023-05-07T21:47:16.393Z,10.37
2023-05-07T21:49:43.140Z,10.37
2023-05-07T21:52:13.779Z,10.37
2023-05-07T21:54:41.562Z,10.37
2023-05-07T21:57:08.657Z,10.37
2023-05-07T21:59:37.451Z,10.37
2023-05-07T22:02:05.024Z,10.37
2023-05-07T22:04:32.039Z,10.38
2023-05-07T22:06:58.905Z,10.39
2023-05-07T22:09:26.632Z,10.41
2023-05-07T22:11:54.582Z,10.42
2023-05-07T22:14:22.214Z,10.42
2023-05-07T22:16:49.179Z,10.43
2023-05-07T22:19:16.083Z,10.44
2023-05-07T22:21:43.226Z,10.45
2023-05-07T22:24:10.376Z,10.46
2023-05-07T22:26:37.282Z,10.48
2023-05-07T22:29:04.113Z,10.49
2023-05-07T22:31:31.661Z,10.48
2023-05-07T22:33:58.656Z,10.48
2023-05-07T22:36:25.413Z,10.48
2023-05-07T22:38:52.357Z,10.46
2023-05-07T22:41:19.198Z,10.45
2023-05-07T22:43:46.048Z,10.46
2023-05-07T22:46:13.095Z,10.44
2023-05-07T22:48:39.804Z,10.43
2023-05-07T22:51:07.119Z,10.42
2023-05-07T22:53:34.108Z,10.40
2023-05-07T22:56:05.601Z,10.38
2023-05-07T22:58:32.976Z,10.36
2023-05-07T23:00:59.975Z,10.33
2023-05-07T23:03:26.818Z,10.32
2023-05-07T23:05:53.918Z,10.30
2023-05-07T23:08:21.190Z,10.28
2023-05-07T23:10:48.028Z,10.27
2023-05-07T23:13:16.709Z,10.26
2023-05-07T23:15:43.741Z,10.26
2023-05-07T23:18:11.125Z,10.26
2023-05-07T23:20:40.702Z,10.23
2023-05-07T23:23:07.724Z,10.22
2023-05-07T23:25:34.519Z,10.22
2023-05-07T23:28:03.282Z,10.21
2023-05-07T23:30:30.884Z,10.20
2023-05-07T23:32:57.730Z,10.20
2023-05-07T23:35:24.576Z,10.20
2023-05-07T23:37:51.337Z,10.19
2023-05-07T23:40:18.271Z,10.17
2023-05-07T23:42:45.109Z,10.15
2023-05-07T23:45:11.993Z,10.14
2023-05-07T23:47:39.573Z,10.13
2023-05-07T23:50:06.690Z,10.12
2023-05-07T23:52:34.046Z,10.12
2023-05-07T23:55:00.826Z,10.12
2023-05-07T23:57:28.079Z,10.12
2023-05-07T23:59:55.180Z,10.10
